Time,TemperatureF,DewpointF,PressureIn,WindDirection,WindDirectionDegrees,WindSpeedMPH,WindSpeedGustMPH,Humidity,HourlyPrecipIn,Conditions,Clouds,dailyrainin,SoftwareType,DateUTC
2014-01-03 00:02:00,-15.4,-20.2,30.55,South,186,0.0,0.0,78,0.00,,---,0.00,VWS V14.01,2014-01-03 06:02:00,
2014-01-03 00:07:00,-15.8,-20.9,30.55,South,186,0.0,0.0,77,0.00,,---,0.00,VWS V14.01,2014-01-03 06:07:00,
2014-01-03 00:12:00,-16.2,-21.2,30.55,South,186,0.0,0.0,77,0.00,,---,0.00,VWS V14.01,2014-01-03 06:12:00,
2014-01-03 00:17:00,-16.5,-21.3,30.55,South,186,0.0,0.0,78,0.00,,---,0.00,VWS V14.01,2014-01-03 06:17:00,
2014-01-03 00:22:00,-16.5,-21.3,30.55,South,186,0.0,0.0,78,0.00,,---,0.00,VWS V14.01,2014-01-03 06:22:00,
2014-01-03 00:27:00,-16.6,-21.2,30.55,South,186,0.0,0.0,79,0.00,,---,0.00,VWS V14.01,2014-01-03 06:27:00,
2014-01-03 00:32:00,-16.7,-21.2,30.54,South,186,0.0,0.0,79,0.00,,---,0.00,VWS V14.01,2014-01-03 06:32:00,
2014-01-03 00:37:00,-16.7,-21.2,30.54,South,186,0.0,0.0,79,0.00,,---,0.00,VWS V14.01,2014-01-03 06:37:00,
2014-01-03 00:42:00,-16.4,-20.7,30.54,South,186,0.0,0.0,80,0.00,,---,0.00,VWS V14.01,2014-01-03 06:42:00,
2014-01-03 00:47:00,-16.2,-20.5,30.55,South,186,0.0,0.0,80,0.00,,---,0.00,VWS V14.01,2014-01-03 06:47:00,
2014-01-03 00:52:00,-16.0,-20.3,30.54,South,186,0.0,0.0,80,0.00,,---,0.00,VWS V14.01,2014-01-03 06:52:00,
2014-01-03 00:57:00,-16.0,-20.6,30.55,South,186,0.0,0.0,79,0.00,,---,0.00,VWS V14.01,2014-01-03 06:57:00,
2014-01-03 01:02:00,-16.1,-20.7,30.55,WSW,257,0.0,1.0,79,0.00,,---,0.00,VWS V14.01,2014-01-03 07:02:00,
2014-01-03 01:07:00,-15.5,-19.8,30.55,WSW,257,0.0,1.0,80,0.00,,---,0.00,VWS V14.01,2014-01-03 07:07:00,
2014-01-03 01:12:00,-15.1,-19.5,30.55,WSW,257,0.0,0.0,80,0.00,,---,0.00,VWS V14.01,2014-01-03 07:12:00,
2014-01-03 01:17:00,-15.0,-19.6,30.54,WSW,257,0.0,0.0,79,0.00,,---,0.00,VWS V14.01,2014-01-03 07:17:00,
2014-01-03 01:22:00,-15.0,-19.6,30.54,WSW,257,0.0,0.0,79,0.00,,---,0.00,VWS V14.01,2014-01-03 07:22:00,
2014-01-03 01:27:00,-14.8,-19.4,30.53,WSW,257,0.0,0.0,79,0.00,,---,0.00,VWS V14.01,2014-01-03 07:27:00,
2014-01-03 01:32:00,-14.6,-19.0,30.53,WSW,257,0.0,0.0,80,0.00,,---,0.00,VWS V14.01,2014-01-03 07:32:00,
2014-01-03 01:37:00,-14.6,-19.2,30.53,WSW,256,0.0,0.0,79,0.00,,---,0.00,VWS V14.01,2014-01-03 07:37:00,
2014-01-03 01:42:00,-14.8,-19.4,30.52,WSW,256,0.0,0.0,79,0.00,,---,0.00,VWS V14.01,2014-01-03 07:42:00,
2014-01-03 01:47:00,-15.0,-19.6,30.52,SSW,207,0.0,1.0,79,0.00,,---,0.00,VWS V14.01,2014-01-03 07:47:00,
2014-01-03 01:52:00,-15.2,-19.8,30.52,SSW,207,0.0,0.0,79,0.00,,---,0.00,VWS V14.01,2014-01-03 07:52:00,
2014-01-03 01:57:00,-15.5,-20.1,30.52,SSE,163,0.0,0.0,79,0.00,,---,0.00,VWS V14.01,2014-01-03 07:57:00,
2014-01-03 02:02:00,-15.1,-19.5,30.52,SE,124,0.0,1.0,80,0.00,,---,0.00,VWS V14.01,2014-01-03 08:02:00,
2014-01-03 02:07:00,-14.8,-19.2,30.52,ESE,103,1.0,3.0,80,0.00,,---,0.00,VWS V14.01,2014-01-03 08:07:00,
2014-01-03 02:12:00,-14.6,-19.2,30.52,SE,134,2.0,4.0,79,0.00,,---,0.00,VWS V14.01,2014-01-03 08:12:00,
2014-01-03 02:18:00,-14.7,-19.3,30.51,SE,144,0.0,4.0,79,0.00,,---,0.00,VWS V14.01,2014-01-03 08:18:00,
2014-01-03 02:23:00,-14.6,-19.2,30.51,SE,141,1.0,2.0,79,0.00,,---,0.00,VWS V14.01,2014-01-03 08:23:00,
2014-01-03 02:28:00,-14.6,-19.2,30.50,South,173,0.0,3.0,79,0.00,,---,0.00,VWS V14.01,2014-01-03 08:28:00,
2014-01-03 02:33:00,-14.5,-19.1,30.50,SSE,153,1.0,3.0,79,0.00,,---,0.00,VWS V14.01,2014-01-03 08:33:00,
2014-01-03 02:38:00,-14.4,-19.0,30.50,SSE,148,4.0,4.0,79,0.00,,---,0.00,VWS V14.01,2014-01-03 08:38:00,
2014-01-03 02:43:00,-14.3,-18.9,30.50,South,173,0.0,3.0,79,0.00,,---,0.00,VWS V14.01,2014-01-03 08:43:00,
2014-01-03 02:48:00,-14.2,-18.8,30.49,SSW,194,0.0,3.0,79,0.00,,---,0.00,VWS V14.01,2014-01-03 08:48:00,
2014-01-03 02:53:00,-14.2,-18.8,30.50,SW,222,0.0,1.0,79,0.00,,---,0.00,VWS V14.01,2014-01-03 08:53:00,
2014-01-03 02:58:00,-14.3,-18.9,30.50,SSE,160,1.0,1.0,79,0.00,,---,0.00,VWS V14.01,2014-01-03 08:58:00,
2014-01-03 03:03:00,-14.4,-19.0,30.50,SSW,195,0.0,0.0,79,0.00,,---,0.00,VWS V14.01,2014-01-03 09:03:00,
2014-01-03 03:08:00,-14.5,-19.1,30.49,SSW,193,0.0,1.0,79,0.00,,---,0.00,VWS V14.01,2014-01-03 09:08:00,
2014-01-03 03:13:00,-14.4,-19.0,30.48,ESE,113,1.0,2.0,79,0.00,,---,0.00,VWS V14.01,2014-01-03 09:13:00,
2014-01-03 03:18:00,-14.5,-19.1,30.47,SSW,192,0.0,2.0,79,0.00,,---,0.00,VWS V14.01,2014-01-03 09:18:00,
2014-01-03 03:23:00,-14.6,-19.2,30.47,South,191,0.0,0.0,79,0.00,,---,0.00,VWS V14.01,2014-01-03 09:23:00,
2014-01-03 03:28:00,-14.7,-19.3,30.46,South,191,0.0,0.0,79,0.00,,---,0.00,VWS V14.01,2014-01-03 09:28:00,
2014-01-03 03:33:00,-14.8,-19.4,30.46,South,172,0.0,0.0,79,0.00,,---,0.00,VWS V14.01,2014-01-03 09:33:00,
2014-01-03 03:38:00,-14.8,-19.4,30.45,South,172,0.0,0.0,79,0.00,,---,0.00,VWS V14.01,2014-01-03 09:38:00,
2014-01-03 03:43:00,-14.8,-19.4,30.45,South,172,0.0,0.0,79,0.00,,---,0.00,VWS V14.01,2014-01-03 09:43:00,
2014-01-03 03:48:00,-14.7,-19.1,30.44,South,172,0.0,0.0,80,0.00,,---,0.00,VWS V14.01,2014-01-03 09:48:00,
2014-01-03 03:53:00,-14.6,-19.0,30.44,South,172,0.0,0.0,80,0.00,,---,0.00,VWS V14.01,2014-01-03 09:53:00,
2014-01-03 03:58:00,-14.6,-19.0,30.44,South,172,0.0,0.0,80,0.00,,---,0.00,VWS V14.01,2014-01-03 09:58:00,
2014-01-03 04:03:00,-14.5,-18.9,30.43,SSE,155,2.0,2.0,80,0.00,,---,0.00,VWS V14.01,2014-01-03 10:03:00,
2014-01-03 04:08:00,-14.1,-18.2,30.43,ENE,70,0.0,2.0,81,0.00,,---,0.00,VWS V14.01,2014-01-03 10:08:00,
2014-01-03 04:13:00,-13.8,-18.2,30.43,ENE,70,1.0,1.0,80,0.00,,---,0.00,VWS V14.01,2014-01-03 10:13:00,
2014-01-03 04:18:00,-13.4,-17.8,30.42,ENE,70,0.0,1.0,80,0.00,,---,0.00,VWS V14.01,2014-01-03 10:18:00,
2014-01-03 04:23:00,-13.0,-17.4,30.43,ENE,70,0.0,0.0,80,0.00,,---,0.00,VWS V14.01,2014-01-03 10:23:00,
2014-01-03 04:28:00,-12.5,-16.9,30.42,ESE,119,1.0,2.0,80,0.00,,---,0.00,VWS V14.01,2014-01-03 10:28:00,
2014-01-03 04:33:00,-12.1,-16.5,30.42,ESE,115,0.0,1.0,80,0.00,,---,0.00,VWS V14.01,2014-01-03 10:33:00,
2014-01-03 04:38:00,-11.8,-16.5,30.41,ESE,115,0.0,1.0,79,0.00,,---,0.00,VWS V14.01,2014-01-03 10:38:00,
2014-01-03 04:43:00,-11.3,-16.0,30.41,East,101,0.0,2.0,79,0.00,,---,0.00,VWS V14.01,2014-01-03 10:43:00,
2014-01-03 04:48:00,-10.9,-15.6,30.40,ESE,115,1.0,2.0,79,0.00,,---,0.00,VWS V14.01,2014-01-03 10:48:00,
2014-01-03 04:53:00,-10.5,-15.2,30.39,East,101,1.0,2.0,79,0.00,,---,0.00,VWS V14.01,2014-01-03 10:53:00,
2014-01-03 04:58:00,-10.1,-15.1,30.39,ESE,102,1.0,3.0,78,0.00,,---,0.00,VWS V14.01,2014-01-03 10:58:00,
2014-01-03 05:03:00,-9.6,-14.6,30.38,ESE,117,1.0,3.0,78,0.00,,---,0.00,VWS V14.01,2014-01-03 11:03:00,
2014-01-03 05:08:00,-9.2,-14.2,30.37,East,101,1.0,3.0,78,0.00,,---,0.00,VWS V14.01,2014-01-03 11:08:00,
2014-01-03 05:13:00,-8.6,-13.3,30.37,ESE,104,1.0,2.0,79,0.00,,---,0.00,VWS V14.01,2014-01-03 11:13:00,
2014-01-03 05:18:00,-8.0,-12.8,30.37,East,95,1.0,2.0,79,0.00,,---,0.00,VWS V14.01,2014-01-03 11:18:00,
2014-01-03 05:23:00,-7.4,-12.2,30.37,ESE,106,1.0,2.0,79,0.00,,---,0.00,VWS V14.01,2014-01-03 11:23:00,
2014-01-03 05:28:00,-6.8,-11.6,30.37,ESE,108,2.0,2.0,79,0.00,,---,0.00,VWS V14.01,2014-01-03 11:28:00,
2014-01-03 05:33:00,-6.1,-10.6,30.36,East,96,3.0,5.0,80,0.00,,---,0.00,VWS V14.01,2014-01-03 11:33:00,
2014-01-03 05:38:00,-5.3,-9.9,30.36,East,83,2.0,5.0,80,0.00,,---,0.00,VWS V14.01,2014-01-03 11:38:00,
2014-01-03 05:43:00,-4.1,-8.4,30.35,East,96,1.0,6.0,81,0.00,,---,0.00,VWS V14.01,2014-01-03 11:43:00,
2014-01-03 05:48:00,-2.8,-7.2,30.35,ESE,108,6.0,8.0,81,0.00,,---,0.00,VWS V14.01,2014-01-03 11:48:00,
2014-01-03 05:53:00,-1.8,-6.7,30.34,ESE,107,5.0,9.0,79,0.00,,---,0.00,VWS V14.01,2014-01-03 11:53:00,
2014-01-03 05:58:00,-1.3,-6.5,30.35,ESE,123,3.0,9.0,78,0.00,,---,0.00,VWS V14.01,2014-01-03 11:58:00,
2014-01-03 06:03:00,-1.1,-6.3,30.34,ESE,105,2.0,7.0,78,0.00,,---,0.00,VWS V14.01,2014-01-03 12:03:00,
2014-01-03 06:09:00,-0.9,-6.4,30.34,ESE,120,1.0,10.0,77,0.00,,---,0.00,VWS V14.01,2014-01-03 12:09:00,
2014-01-03 06:14:00,-0.8,-6.3,30.33,ESE,108,3.0,12.0,77,0.00,,---,0.00,VWS V14.01,2014-01-03 12:14:00,
2014-01-03 06:19:00,-0.7,-6.2,30.33,ESE,120,2.0,12.0,77,0.00,,---,0.00,VWS V14.01,2014-01-03 12:19:00,
2014-01-03 06:24:00,-0.5,-6.0,30.33,ESE,115,3.0,9.0,77,0.00,,---,0.00,VWS V14.01,2014-01-03 12:24:00,
2014-01-03 06:29:00,-0.4,-5.9,30.33,ESE,110,3.0,9.0,77,0.00,,---,0.00,VWS V14.01,2014-01-03 12:29:00,
2014-01-03 06:34:00,-0.3,-6.0,30.32,SE,125,2.0,9.0,76,0.00,,---,0.00,VWS V14.01,2014-01-03 12:34:00,
2014-01-03 06:39:00,-0.1,-5.8,30.31,ESE,115,4.0,11.0,76,0.00,,---,0.00,VWS V14.01,2014-01-03 12:39:00,
2014-01-03 06:44:00,-0.1,-5.8,30.31,ESE,107,2.0,8.0,76,0.00,,---,0.00,VWS V14.01,2014-01-03 12:44:00,
2014-01-03 06:49:00,0.3,-5.5,30.30,East,100,2.0,10.0,76,0.00,,---,0.00,VWS V14.01,2014-01-03 12:49:00,
2014-01-03 06:54:00,0.5,-5.5,30.29,ENE,76,3.0,6.0,75,0.00,,---,0.00,VWS V14.01,2014-01-03 12:54:00,
2014-01-03 06:59:00,0.7,-5.3,30.29,ESE,110,7.0,7.0,75,0.00,,---,0.00,VWS V14.01,2014-01-03 12:59:00,
2014-01-03 07:04:00,1.1,-5.0,30.29,SE,132,3.0,8.0,75,0.00,,---,0.00,VWS V14.01,2014-01-03 13:04:00,
2014-01-03 07:09:00,1.4,-4.9,30.28,WNW,291,2.0,12.0,74,0.00,,---,0.00,VWS V14.01,2014-01-03 13:09:00,
2014-01-03 07:14:00,1.7,-4.9,30.28,ENE,76,3.0,13.0,73,0.00,,---,0.00,VWS V14.01,2014-01-03 13:14:00,
2014-01-03 07:19:00,1.8,-4.8,30.27,SE,124,2.0,13.0,73,0.00,,---,0.00,VWS V14.01,2014-01-03 13:19:00,
2014-01-03 07:24:00,1.9,-4.5,30.27,SE,131,1.0,5.0,74,0.00,,---,0.00,VWS V14.01,2014-01-03 13:24:00,
2014-01-03 07:29:00,1.9,-4.5,30.26,SSE,162,5.0,7.0,74,0.00,,---,0.00,VWS V14.01,2014-01-03 13:29:00,
2014-01-03 07:34:00,2.0,-4.4,30.25,East,86,4.0,8.0,74,0.00,,---,0.00,VWS V14.01,2014-01-03 13:34:00,
2014-01-03 07:39:00,2.4,-4.0,30.25,ESE,108,2.0,14.0,74,0.00,,---,0.00,VWS V14.01,2014-01-03 13:39:00,
2014-01-03 07:44:00,2.8,-3.9,30.25,ESE,110,2.0,11.0,73,0.00,,---,0.00,VWS V14.01,2014-01-03 13:44:00,
2014-01-03 07:49:00,3.1,-3.9,30.25,South,180,6.0,15.0,72,0.00,,---,0.00,VWS V14.01,2014-01-03 13:49:00,
2014-01-03 07:54:00,3.2,-3.8,30.24,ESE,110,3.0,11.0,72,0.00,,---,0.00,VWS V14.01,2014-01-03 13:54:00,
2014-01-03 07:59:00,3.3,-4.0,30.23,ESE,113,3.0,11.0,71,0.00,,---,0.00,VWS V14.01,2014-01-03 13:59:00,
2014-01-03 08:04:00,3.4,-3.9,30.23,ESE,117,2.0,13.0,71,0.00,,---,0.00,VWS V14.01,2014-01-03 14:04:00,
2014-01-03 08:09:00,3.5,-3.8,30.23,ESE,107,2.0,14.0,71,0.00,,---,0.00,VWS V14.01,2014-01-03 14:09:00,
2014-01-03 08:14:00,3.6,-3.7,30.22,SE,125,3.0,9.0,71,0.00,,---,0.00,VWS V14.01,2014-01-03 14:14:00,
2014-01-03 08:19:00,3.7,-3.6,30.22,East,97,4.0,15.0,71,0.00,,---,0.00,VWS V14.01,2014-01-03 14:19:00,
2014-01-03 08:24:00,3.8,-3.5,30.21,SE,146,4.0,14.0,71,0.00,,---,0.00,VWS V14.01,2014-01-03 14:24:00,
2014-01-03 08:29:00,3.9,-3.7,30.20,SSE,150,4.0,14.0,70,0.00,,---,0.00,VWS V14.01,2014-01-03 14:29:00,
2014-01-03 08:34:00,4.0,-3.6,30.20,NE,52,1.0,12.0,70,0.00,,---,0.00,VWS V14.01,2014-01-03 14:34:00,
2014-01-03 08:39:00,4.2,-3.4,30.20,SSE,160,8.0,14.0,70,0.00,,---,0.00,VWS V14.01,2014-01-03 14:39:00,
2014-01-03 08:44:00,4.4,-3.2,30.20,SSE,149,9.0,10.0,70,0.00,,---,0.00,VWS V14.01,2014-01-03 14:44:00,
2014-01-03 08:49:00,4.5,-2.8,30.19,SSE,168,2.0,15.0,71,0.00,,---,0.00,VWS V14.01,2014-01-03 14:49:00,
2014-01-03 08:55:00,4.6,-3.0,30.19,SE,146,5.0,13.0,70,0.00,,---,0.00,VWS V14.01,2014-01-03 14:55:00,
2014-01-03 09:00:00,4.8,-3.1,30.18,South,174,8.0,13.0,69,0.00,,---,0.00,VWS V14.01,2014-01-03 15:00:00,
2014-01-03 09:05:00,4.9,-3.0,30.17,ESE,121,5.0,10.0,69,0.00,,---,0.00,VWS V14.01,2014-01-03 15:05:00,
2014-01-03 09:10:00,5.1,-2.8,30.16,ESE,107,4.0,14.0,69,0.00,,---,0.00,VWS V14.01,2014-01-03 15:10:00,
2014-01-03 09:15:00,5.4,-2.8,30.16,SE,141,7.0,16.0,68,0.00,,---,0.00,VWS V14.01,2014-01-03 15:15:00,
2014-01-03 09:20:00,5.7,-2.3,30.15,East,91,7.0,16.0,69,0.00,,---,0.00,VWS V14.01,2014-01-03 15:20:00,
2014-01-03 09:25:00,5.8,-2.5,30.14,SE,128,2.0,12.0,68,0.00,,---,0.00,VWS V14.01,2014-01-03 15:25:00,
2014-01-03 09:30:00,6.1,-2.2,30.13,SSE,153,3.0,14.0,68,0.00,,---,0.00,VWS V14.01,2014-01-03 15:30:00,
2014-01-03 09:35:00,6.4,-1.6,30.13,East,101,3.0,13.0,69,0.00,,---,0.00,VWS V14.01,2014-01-03 15:35:00,
2014-01-03 09:40:00,6.7,-1.3,30.12,SSE,147,4.0,13.0,69,0.00,,---,0.00,VWS V14.01,2014-01-03 15:40:00,
2014-01-03 09:45:00,7.0,-1.0,30.12,NNW,329,5.0,13.0,69,0.00,,---,0.00,VWS V14.01,2014-01-03 15:45:00,
2014-01-03 09:50:00,7.3,-0.7,30.11,ESE,118,3.0,13.0,69,0.00,,---,0.00,VWS V14.01,2014-01-03 15:50:00,
2014-01-03 09:55:00,7.4,-0.6,30.11,ESE,118,6.0,16.0,69,0.00,,---,0.00,VWS V14.01,2014-01-03 15:55:00,
2014-01-03 10:00:00,7.5,-0.5,30.11,East,101,7.0,16.0,69,0.00,,---,0.00,VWS V14.01,2014-01-03 16:00:00,
2014-01-03 10:05:00,7.7,0.0,30.10,South,190,4.0,10.0,70,0.00,,---,0.00,VWS V14.01,2014-01-03 16:05:00,
2014-01-03 10:10:00,8.0,0.3,30.10,SSE,149,6.0,13.0,70,0.00,,---,0.00,VWS V14.01,2014-01-03 16:10:00,
2014-01-03 10:15:00,8.2,0.8,30.09,East,101,6.0,14.0,71,0.00,,---,0.00,VWS V14.01,2014-01-03 16:15:00,
2014-01-03 10:20:00,8.4,0.9,30.08,SE,132,7.0,14.0,71,0.00,,---,0.00,VWS V14.01,2014-01-03 16:20:00,
2014-01-03 10:25:00,8.6,1.4,30.08,ESE,113,9.0,14.0,72,0.00,,---,0.00,VWS V14.01,2014-01-03 16:25:00,
2014-01-03 10:30:00,8.8,1.9,30.07,East,98,12.0,14.0,73,0.00,,---,0.00,VWS V14.01,2014-01-03 16:30:00,
2014-01-03 10:35:00,9.1,2.2,30.07,ESE,120,7.0,12.0,73,0.00,,---,0.00,VWS V14.01,2014-01-03 16:35:00,
2014-01-03 10:40:00,9.3,2.4,30.06,SSW,208,1.0,2.0,73,0.00,,---,0.00,VWS V14.01,2014-01-03 16:40:00,
2014-01-03 10:45:00,9.6,3.0,30.05,ESE,107,3.0,14.0,74,0.00,,---,0.00,VWS V14.01,2014-01-03 16:45:00,
2014-01-03 10:50:00,9.9,3.3,30.05,WSW,256,3.0,4.0,74,0.00,,---,0.00,VWS V14.01,2014-01-03 16:50:00,
2014-01-03 10:55:00,10.2,3.6,30.05,SSE,167,4.0,10.0,74,0.00,,---,0.00,VWS V14.01,2014-01-03 16:55:00,
2014-01-03 11:00:00,10.3,3.7,30.04,ESE,120,0.0,2.0,74,0.00,,---,0.00,VWS V14.01,2014-01-03 17:00:00,
2014-01-03 11:05:00,10.6,4.2,30.03,SSE,159,5.0,16.0,75,0.00,,---,0.00,VWS V14.01,2014-01-03 17:05:00,
2014-01-03 11:10:00,11.1,4.7,30.03,ESE,120,2.0,2.0,75,0.00,,---,0.00,VWS V14.01,2014-01-03 17:10:00,
2014-01-03 11:15:00,11.3,4.9,30.02,SSW,198,3.0,17.0,75,0.00,,---,0.00,VWS V14.01,2014-01-03 17:15:00,
2014-01-03 11:20:00,11.4,5.0,30.01,ESE,111,4.0,7.0,75,0.00,,---,0.00,VWS V14.01,2014-01-03 17:20:00,
2014-01-03 11:25:00,11.6,5.2,30.01,SSE,147,6.0,14.0,75,0.00,,---,0.00,VWS V14.01,2014-01-03 17:25:00,
2014-01-03 11:30:00,11.9,5.8,30.00,SSE,163,7.0,10.0,76,0.00,,---,0.00,VWS V14.01,2014-01-03 17:30:00,
2014-01-03 11:35:00,12.3,6.2,30.00,ESE,114,8.0,14.0,76,0.00,,---,0.00,VWS V14.01,2014-01-03 17:35:00,
2014-01-03 11:40:00,12.8,6.7,30.00,ENE,71,3.0,7.0,76,0.00,,---,0.00,VWS V14.01,2014-01-03 17:40:00,
2014-01-03 11:46:00,13.3,7.4,30.00,SE,143,8.0,17.0,77,0.00,,---,0.00,VWS V14.01,2014-01-03 17:46:00,
2014-01-03 11:51:00,13.8,7.7,29.99,SE,145,8.0,11.0,76,0.00,,---,0.00,VWS V14.01,2014-01-03 17:51:00,
2014-01-03 11:56:00,13.9,7.8,29.99,SSE,147,3.0,13.0,76,0.00,,---,0.00,VWS V14.01,2014-01-03 17:56:00,
2014-01-03 12:01:00,13.9,8.0,29.98,SSE,160,3.0,7.0,77,0.00,,---,0.00,VWS V14.01,2014-01-03 18:01:00,
2014-01-03 12:06:00,13.9,7.8,29.98,WSW,245,2.0,17.0,76,0.00,,---,0.00,VWS V14.01,2014-01-03 18:06:00,
2014-01-03 12:11:00,14.1,7.9,29.97,SE,145,3.0,4.0,76,0.00,,---,0.00,VWS V14.01,2014-01-03 18:11:00,
2014-01-03 12:16:00,14.5,8.6,29.97,South,178,4.0,11.0,77,0.00,,---,0.00,VWS V14.01,2014-01-03 18:16:00,
2014-01-03 12:21:00,15.1,8.9,29.97,South,174,6.0,8.0,76,0.00,,---,0.00,VWS V14.01,2014-01-03 18:21:00,
2014-01-03 12:26:00,15.4,8.9,29.96,SE,143,5.0,16.0,75,0.00,,---,0.00,VWS V14.01,2014-01-03 18:26:00,
2014-01-03 12:31:00,15.4,9.2,29.94,SSW,201,2.0,9.0,76,0.00,,---,0.00,VWS V14.01,2014-01-03 18:31:00,
2014-01-03 12:36:00,15.7,9.5,29.94,SSE,158,2.0,12.0,76,0.00,,---,0.00,VWS V14.01,2014-01-03 18:36:00,
2014-01-03 12:41:00,15.6,9.4,29.93,WSW,240,4.0,11.0,76,0.00,,---,0.00,VWS V14.01,2014-01-03 18:41:00,
2014-01-03 12:46:00,15.4,9.2,29.93,West,267,3.0,12.0,76,0.00,,---,0.00,VWS V14.01,2014-01-03 18:46:00,
2014-01-03 12:51:00,15.5,9.3,29.92,SW,226,1.0,5.0,76,0.00,,---,0.00,VWS V14.01,2014-01-03 18:51:00,
2014-01-03 12:56:00,15.4,9.5,29.91,SW,233,4.0,13.0,77,0.00,,---,0.00,VWS V14.01,2014-01-03 18:56:00,
2014-01-03 13:01:00,15.4,9.8,29.90,NE,36,4.0,6.0,78,0.00,,---,0.00,VWS V14.01,2014-01-03 19:01:00,
2014-01-03 13:06:00,15.6,10.0,29.90,SSE,160,2.0,10.0,78,0.00,,---,0.00,VWS V14.01,2014-01-03 19:06:00,
2014-01-03 13:11:00,15.8,10.2,29.89,SSE,149,5.0,13.0,78,0.00,,---,0.00,VWS V14.01,2014-01-03 19:11:00,
2014-01-03 13:16:00,15.9,10.3,29.89,West,263,8.0,14.0,78,0.00,,---,0.00,VWS V14.01,2014-01-03 19:16:00,
2014-01-03 13:21:00,16.0,10.4,29.88,West,269,3.0,12.0,78,0.00,,---,0.00,VWS V14.01,2014-01-03 19:21:00,
2014-01-03 13:26:00,16.3,10.9,29.88,SW,218,3.0,13.0,79,0.00,,---,0.00,VWS V14.01,2014-01-03 19:26:00,
2014-01-03 13:31:00,16.6,11.2,29.87,West,260,1.0,8.0,79,0.00,,---,0.00,VWS V14.01,2014-01-03 19:31:00,
2014-01-03 13:36:00,16.6,11.2,29.87,SE,139,2.0,11.0,79,0.00,,---,0.00,VWS V14.01,2014-01-03 19:36:00,
2014-01-03 13:41:00,16.7,11.3,29.86,SSW,207,6.0,12.0,79,0.00,,---,0.00,VWS V14.01,2014-01-03 19:41:00,
2014-01-03 13:46:00,16.8,11.7,29.86,SSE,150,9.0,15.0,80,0.00,,---,0.00,VWS V14.01,2014-01-03 19:46:00,
2014-01-03 13:51:00,16.8,12.0,29.86,SW,224,2.0,11.0,81,0.00,,---,0.00,VWS V14.01,2014-01-03 19:51:00,
2014-01-03 13:56:00,17.0,12.2,29.85,West,262,11.0,13.0,81,0.00,,---,0.00,VWS V14.01,2014-01-03 19:56:00,
2014-01-03 14:01:00,17.0,12.2,29.86,SE,125,2.0,7.0,81,0.00,,---,0.00,VWS V14.01,2014-01-03 20:01:00,
2014-01-03 14:06:00,17.2,12.7,29.85,SSE,166,6.0,10.0,82,0.00,,---,0.00,VWS V14.01,2014-01-03 20:06:00,
2014-01-03 14:11:00,17.2,12.4,29.86,WSW,256,12.0,13.0,81,0.00,,---,0.00,VWS V14.01,2014-01-03 20:11:00,
2014-01-03 14:17:00,17.1,12.3,29.84,SSW,195,6.0,15.0,81,0.00,,---,0.00,VWS V14.01,2014-01-03 20:17:00,
2014-01-03 14:22:00,17.2,12.4,29.84,SW,222,10.0,11.0,81,0.00,,---,0.00,VWS V14.01,2014-01-03 20:22:00,
2014-01-03 14:27:00,17.3,12.5,29.84,South,172,3.0,12.0,81,0.00,,---,0.00,VWS V14.01,2014-01-03 20:27:00,
2014-01-03 14:32:00,17.3,12.8,29.83,SSW,197,6.0,13.0,82,0.00,,---,0.00,VWS V14.01,2014-01-03 20:32:00,
2014-01-03 14:37:00,17.3,12.8,29.82,SSE,153,6.0,13.0,82,0.00,,---,0.00,VWS V14.01,2014-01-03 20:37:00,
2014-01-03 14:42:00,17.3,12.8,29.82,SSE,152,4.0,10.0,82,0.00,,---,0.00,VWS V14.01,2014-01-03 20:42:00,
2014-01-03 14:47:00,17.4,13.1,29.82,SSE,148,2.0,10.0,83,0.00,,---,0.00,VWS V14.01,2014-01-03 20:47:00,
2014-01-03 14:52:00,17.7,13.4,29.82,South,176,4.0,5.0,83,0.00,,---,0.00,VWS V14.01,2014-01-03 20:52:00,
2014-01-03 14:57:00,17.8,13.5,29.82,South,170,3.0,12.0,83,0.00,,---,0.00,VWS V14.01,2014-01-03 20:57:00,
2014-01-03 15:02:00,17.8,13.5,29.81,South,175,6.0,9.0,83,0.00,,---,0.00,VWS V14.01,2014-01-03 21:02:00,
2014-01-03 15:07:00,17.9,13.6,29.81,South,169,3.0,12.0,83,0.00,,---,0.00,VWS V14.01,2014-01-03 21:07:00,
2014-01-03 15:12:00,17.9,13.6,29.81,SSW,203,5.0,8.0,83,0.00,,---,0.00,VWS V14.01,2014-01-03 21:12:00,
2014-01-03 15:17:00,18.2,13.6,29.80,East,84,4.0,11.0,82,0.00,,---,0.00,VWS V14.01,2014-01-03 21:17:00,
2014-01-03 15:22:00,18.5,13.6,29.80,SE,141,2.0,8.0,81,0.00,,---,0.00,VWS V14.01,2014-01-03 21:22:00,
2014-01-03 15:27:00,18.7,13.9,29.80,SSE,150,10.0,10.0,81,0.00,,---,0.00,VWS V14.01,2014-01-03 21:27:00,
2014-01-03 15:32:00,18.8,13.9,29.79,SW,225,3.0,10.0,81,0.00,,---,0.00,VWS V14.01,2014-01-03 21:32:00,
2014-01-03 15:37:00,18.9,14.0,29.79,SSE,150,2.0,13.0,81,0.00,,---,0.00,VWS V14.01,2014-01-03 21:37:00,
2014-01-03 15:42:00,19.0,14.1,29.79,SE,128,10.0,11.0,81,0.00,,---,0.00,VWS V14.01,2014-01-03 21:42:00,
2014-01-03 15:47:00,19.2,14.1,29.79,SE,128,0.0,11.0,80,0.00,,---,0.00,VWS V14.01,2014-01-03 21:47:00,
2014-01-03 15:52:00,19.2,14.1,29.79,West,269,4.0,12.0,80,0.00,,---,0.00,VWS V14.01,2014-01-03 21:52:00,
2014-01-03 15:57:00,19.2,14.3,29.78,South,186,6.0,16.0,81,0.00,,---,0.00,VWS V14.01,2014-01-03 21:57:00,
2014-01-03 16:02:00,19.2,14.3,29.78,SSE,149,2.0,9.0,81,0.00,,---,0.00,VWS V14.01,2014-01-03 22:02:00,
2014-01-03 16:07:00,19.2,14.3,29.78,SSW,208,3.0,9.0,81,0.00,,---,0.00,VWS V14.01,2014-01-03 22:07:00,
2014-01-03 16:12:00,19.2,14.3,29.78,SSW,204,6.0,12.0,81,0.00,,---,0.00,VWS V14.01,2014-01-03 22:12:00,
2014-01-03 16:17:00,19.2,14.1,29.78,SSW,198,2.0,12.0,80,0.00,,---,0.00,VWS V14.01,2014-01-03 22:17:00,
2014-01-03 16:22:00,19.2,14.3,29.78,SSE,148,2.0,7.0,81,0.00,,---,0.00,VWS V14.01,2014-01-03 22:22:00,
2014-01-03 16:27:00,19.0,14.1,29.78,South,179,2.0,8.0,81,0.00,,---,0.00,VWS V14.01,2014-01-03 22:27:00,
2014-01-03 16:32:00,19.0,14.1,29.78,SSE,162,2.0,9.0,81,0.00,,---,0.00,VWS V14.01,2014-01-03 22:32:00,
2014-01-03 16:37:00,19.0,14.1,29.78,SW,219,2.0,9.0,81,0.00,,---,0.00,VWS V14.01,2014-01-03 22:37:00,
2014-01-03 16:42:00,19.1,14.2,29.77,SW,226,5.0,10.0,81,0.00,,---,0.00,VWS V14.01,2014-01-03 22:42:00,
2014-01-03 16:47:00,19.2,14.6,29.77,NNW,346,0.0,10.0,82,0.00,,---,0.00,VWS V14.01,2014-01-03 22:47:00,
2014-01-03 16:52:00,19.2,14.6,29.77,SE,137,1.0,7.0,82,0.00,,---,0.00,VWS V14.01,2014-01-03 22:52:00,
2014-01-03 16:57:00,19.4,14.8,29.76,South,181,3.0,8.0,82,0.00,,---,0.00,VWS V14.01,2014-01-03 22:57:00,
2014-01-03 17:02:00,19.4,14.8,29.76,SE,125,0.0,8.0,82,0.00,,---,0.00,VWS V14.01,2014-01-03 23:02:00,
2014-01-03 17:07:00,19.4,14.8,29.76,SW,233,2.0,11.0,82,0.00,,---,0.00,VWS V14.01,2014-01-03 23:07:00,
2014-01-03 17:12:00,19.4,15.1,29.76,SSE,156,3.0,14.0,83,0.00,,---,0.00,VWS V14.01,2014-01-03 23:12:00,
2014-01-03 17:18:00,19.6,15.3,29.75,SSE,150,4.0,14.0,83,0.00,,---,0.00,VWS V14.01,2014-01-03 23:18:00,
2014-01-03 17:23:00,19.7,15.1,29.75,ESE,117,9.0,9.0,82,0.00,,---,0.00,VWS V14.01,2014-01-03 23:23:00,
2014-01-03 17:28:00,19.7,15.1,29.75,South,191,6.0,10.0,82,0.00,,---,0.00,VWS V14.01,2014-01-03 23:28:00,
2014-01-03 17:33:00,19.8,15.2,29.74,South,178,4.0,6.0,82,0.00,,---,0.00,VWS V14.01,2014-01-03 23:33:00,
2014-01-03 17:38:00,19.9,15.3,29.74,SSE,155,8.0,12.0,82,0.00,,---,0.00,VWS V14.01,2014-01-03 23:38:00,
2014-01-03 17:43:00,19.9,15.3,29.74,SSE,150,2.0,9.0,82,0.00,,---,0.00,VWS V14.01,2014-01-03 23:43:00,
2014-01-03 17:48:00,19.9,15.3,29.75,SE,133,2.0,9.0,82,0.00,,---,0.00,VWS V14.01,2014-01-03 23:48:00,
2014-01-03 17:53:00,19.9,15.3,29.74,SSE,163,2.0,11.0,82,0.00,,---,0.00,VWS V14.01,2014-01-03 23:53:00,
2014-01-03 17:58:00,19.8,15.2,29.74,South,184,6.0,11.0,82,0.00,,---,0.00,VWS V14.01,2014-01-03 23:58:00,
2014-01-03 18:03:00,19.7,15.1,29.74,NNE,30,6.0,8.0,82,0.00,,---,0.00,VWS V14.01,2014-01-04 00:03:00,
2014-01-03 18:08:00,19.8,15.2,29.73,South,191,2.0,9.0,82,0.00,,---,0.00,VWS V14.01,2014-01-04 00:08:00,
2014-01-03 18:13:00,19.9,15.3,29.75,WSW,243,5.0,9.0,82,0.00,,---,0.00,VWS V14.01,2014-01-04 00:13:00,
2014-01-03 18:18:00,19.9,15.3,29.73,East,84,3.0,9.0,82,0.00,,---,0.00,VWS V14.01,2014-01-04 00:18:00,
2014-01-03 18:23:00,19.6,14.7,29.73,South,183,3.0,5.0,81,0.00,,---,0.00,VWS V14.01,2014-01-04 00:23:00,
2014-01-03 18:28:00,19.3,14.7,29.74,SSE,159,2.0,6.0,82,0.00,,---,0.00,VWS V14.01,2014-01-04 00:28:00,
2014-01-03 18:33:00,19.3,14.7,29.73,South,176,2.0,6.0,82,0.00,,---,0.00,VWS V14.01,2014-01-04 00:33:00,
2014-01-03 18:38:00,19.3,15.0,29.73,SSW,203,4.0,6.0,83,0.00,,---,0.00,VWS V14.01,2014-01-04 00:38:00,
2014-01-03 18:43:00,19.5,15.2,29.73,SE,125,6.0,7.0,83,0.00,,---,0.00,VWS V14.01,2014-01-04 00:43:00,
2014-01-03 18:48:00,19.8,15.5,29.72,SSE,165,2.0,12.0,83,0.00,,---,0.00,VWS V14.01,2014-01-04 00:48:00,
2014-01-03 18:53:00,19.9,15.6,29.73,South,184,1.0,5.0,83,0.00,,---,0.00,VWS V14.01,2014-01-04 00:53:00,
2014-01-03 18:58:00,19.9,15.3,29.72,ESE,107,3.0,8.0,82,0.00,,---,0.00,VWS V14.01,2014-01-04 00:58:00,
2014-01-03 19:03:00,20.0,15.7,29.72,SSE,163,2.0,11.0,83,0.00,,---,0.00,VWS V14.01,2014-01-04 01:03:00,
2014-01-03 19:08:00,20.1,15.5,29.72,South,184,5.0,12.0,82,0.00,,---,0.00,VWS V14.01,2014-01-04 01:08:00,
2014-01-03 19:13:00,20.2,15.6,29.72,SSE,158,2.0,9.0,82,0.00,,---,0.00,VWS V14.01,2014-01-04 01:13:00,
2014-01-03 19:18:00,20.3,15.7,29.72,SW,214,8.0,12.0,82,0.00,,---,0.00,VWS V14.01,2014-01-04 01:18:00,
2014-01-03 19:24:00,20.3,15.7,29.72,SW,224,3.0,10.0,82,0.00,,---,0.00,VWS V14.01,2014-01-04 01:24:00,
2014-01-03 19:29:00,20.4,15.8,29.71,South,177,0.0,10.0,82,0.00,,---,0.00,VWS V14.01,2014-01-04 01:29:00,
2014-01-03 19:34:00,20.5,15.9,29.71,ESE,114,3.0,8.0,82,0.00,,---,0.00,VWS V14.01,2014-01-04 01:34:00,
2014-01-03 19:39:00,20.7,16.1,29.71,SE,145,4.0,11.0,82,0.00,,---,0.00,VWS V14.01,2014-01-04 01:39:00,
2014-01-03 19:44:00,20.8,16.2,29.71,South,182,2.0,8.0,82,0.00,,---,0.00,VWS V14.01,2014-01-04 01:44:00,
2014-01-03 19:49:00,20.9,16.3,29.70,SSE,149,2.0,9.0,82,0.00,,---,0.00,VWS V14.01,2014-01-04 01:49:00,
2014-01-03 19:54:00,21.0,16.4,29.70,SSW,211,5.0,11.0,82,0.00,,---,0.00,VWS V14.01,2014-01-04 01:54:00,
2014-01-03 19:59:00,21.1,16.5,29.69,SE,146,2.0,11.0,82,0.00,,---,0.00,VWS V14.01,2014-01-04 01:59:00,
2014-01-03 20:04:00,21.2,16.6,29.69,SSE,150,2.0,10.0,82,0.00,,---,0.00,VWS V14.01,2014-01-04 02:04:00,
2014-01-03 20:09:00,21.3,16.7,29.68,SE,124,5.0,10.0,82,0.00,,---,0.00,VWS V14.01,2014-01-04 02:09:00,
2014-01-03 20:14:00,21.4,16.8,29.68,SSW,212,4.0,11.0,82,0.00,,---,0.00,VWS V14.01,2014-01-04 02:14:00,
2014-01-03 20:19:00,21.5,16.9,29.68,ESE,117,3.0,11.0,82,0.00,,---,0.00,VWS V14.01,2014-01-04 02:19:00,
2014-01-03 20:24:00,21.6,17.0,29.68,SE,124,2.0,11.0,82,0.00,,---,0.00,VWS V14.01,2014-01-04 02:24:00,
2014-01-03 20:29:00,21.8,17.2,29.68,South,170,2.0,14.0,82,0.00,,---,0.00,VWS V14.01,2014-01-04 02:29:00,
2014-01-03 20:34:00,21.9,17.3,29.68,SW,214,2.0,9.0,82,0.00,,---,0.00,VWS V14.01,2014-01-04 02:34:00,
2014-01-03 20:39:00,22.0,17.4,29.68,SW,236,2.0,9.0,82,0.00,,---,0.00,VWS V14.01,2014-01-04 02:39:00,
2014-01-03 20:44:00,22.1,17.5,29.67,SSE,149,1.0,10.0,82,0.00,,---,0.00,VWS V14.01,2014-01-04 02:44:00,
2014-01-03 20:49:00,22.2,17.5,29.67,SSW,198,6.0,12.0,82,0.00,,---,0.00,VWS V14.01,2014-01-04 02:49:00,
2014-01-03 20:54:00,22.4,17.8,29.67,SSW,200,9.0,9.0,82,0.00,,---,0.00,VWS V14.01,2014-01-04 02:54:00,
2014-01-03 20:57:00,22.5,17.9,29.67,West,280,3.0,9.0,82,0.00,,---,0.00,VWS V14.01,2014-01-04 02:57:00,
2014-01-03 21:02:00,22.7,18.0,29.67,SSW,194,1.0,9.0,82,0.00,,---,0.00,VWS V14.01,2014-01-04 03:02:00,
2014-01-03 21:07:00,22.8,18.1,29.67,SSE,147,9.0,11.0,82,0.00,,---,0.00,VWS V14.01,2014-01-04 03:07:00,
2014-01-03 21:12:00,23.1,18.4,29.66,SSW,194,2.0,2.0,82,0.00,,---,0.00,VWS V14.01,2014-01-04 03:12:00,
2014-01-03 21:17:00,23.2,18.5,29.66,WSW,245,2.0,10.0,82,0.00,,---,0.00,VWS V14.01,2014-01-04 03:17:00,
2014-01-03 21:22:00,23.5,18.8,29.66,WSW,249,5.0,6.0,82,0.00,,---,0.00,VWS V14.01,2014-01-04 03:22:00,
2014-01-03 21:27:00,23.7,19.0,29.66,SSW,193,1.0,10.0,82,0.00,,---,0.00,VWS V14.01,2014-01-04 03:27:00,
2014-01-03 21:32:00,24.0,19.3,29.66,SE,134,4.0,7.0,82,0.00,,---,0.00,VWS V14.01,2014-01-04 03:32:00,
2014-01-03 21:37:00,24.3,19.3,29.66,WSW,245,7.0,10.0,81,0.00,,---,0.00,VWS V14.01,2014-01-04 03:37:00,
2014-01-03 21:42:00,24.5,19.5,29.65,SE,125,0.0,9.0,81,0.00,,---,0.00,VWS V14.01,2014-01-04 03:42:00,
2014-01-03 21:47:00,24.6,19.6,29.65,SW,224,3.0,10.0,81,0.00,,---,0.00,VWS V14.01,2014-01-04 03:47:00,
2014-01-03 21:52:00,24.8,19.8,29.65,South,173,7.0,11.0,81,0.00,,---,0.00,VWS V14.01,2014-01-04 03:52:00,
2014-01-03 21:57:00,24.9,19.9,29.65,WSW,246,4.0,11.0,81,0.00,,---,0.00,VWS V14.01,2014-01-04 03:57:00,
2014-01-03 22:02:00,25.0,20.0,29.65,WSW,257,4.0,11.0,81,0.00,,---,0.00,VWS V14.01,2014-01-04 04:02:00,
2014-01-03 22:07:00,25.2,19.9,29.65,WSW,245,2.0,12.0,80,0.00,,---,0.00,VWS V14.01,2014-01-04 04:07:00,
2014-01-03 22:12:00,25.2,20.2,29.64,West,264,0.0,7.0,81,0.00,,---,0.00,VWS V14.01,2014-01-04 04:12:00,
2014-01-03 22:17:00,25.3,20.3,29.64,WNW,283,2.0,8.0,81,0.00,,---,0.00,VWS V14.01,2014-01-04 04:17:00,
2014-01-03 22:22:00,25.4,20.4,29.64,WSW,239,4.0,7.0,81,0.00,,---,0.00,VWS V14.01,2014-01-04 04:22:00,
2014-01-03 22:27:00,25.6,20.3,29.64,SSW,212,2.0,8.0,80,0.00,,---,0.00,VWS V14.01,2014-01-04 04:27:00,
2014-01-03 22:32:00,25.8,20.5,29.64,SSW,205,7.0,8.0,80,0.00,,---,0.00,VWS V14.01,2014-01-04 04:32:00,
2014-01-03 22:37:00,25.9,20.6,29.64,West,271,4.0,19.0,80,0.00,,---,0.00,VWS V14.01,2014-01-04 04:37:00,
2014-01-03 22:42:00,26.0,20.7,29.64,East,93,5.0,11.0,80,0.00,,---,0.00,VWS V14.01,2014-01-04 04:42:00,
2014-01-03 22:47:00,26.1,20.8,29.64,SW,219,8.0,15.0,80,0.00,,---,0.00,VWS V14.01,2014-01-04 04:47:00,
2014-01-03 22:52:00,26.1,20.8,29.63,SSW,205,2.0,11.0,80,0.00,,---,0.00,VWS V14.01,2014-01-04 04:52:00,
2014-01-03 22:57:00,26.2,20.9,29.63,SSE,166,5.0,11.0,80,0.00,,---,0.00,VWS V14.01,2014-01-04 04:57:00,
2014-01-03 23:01:00,26.1,21.1,29.63,SW,219,4.0,8.0,81,0.00,,---,0.00,VWS V14.01,2014-01-04 05:01:00,
2014-01-03 23:02:00,26.1,21.1,29.63,SW,221,7.0,9.0,81,0.00,,---,0.00,VWS V14.01,2014-01-04 05:02:00,
2014-01-03 23:03:00,26.1,21.1,29.63,SSW,201,9.0,12.0,81,0.00,,---,0.00,VWS V14.01,2014-01-04 05:03:00,
2014-01-03 23:08:00,26.2,21.2,29.63,SSE,159,2.0,12.0,81,0.00,,---,0.00,VWS V14.01,2014-01-04 05:08:00,
2014-01-03 23:13:00,26.3,21.3,29.63,SW,228,3.0,14.0,81,0.00,,---,0.00,VWS V14.01,2014-01-04 05:13:00,
2014-01-03 23:18:00,26.4,21.4,29.62,NW,305,5.0,14.0,81,0.00,,---,0.00,VWS V14.01,2014-01-04 05:18:00,
2014-01-03 23:23:00,26.3,21.6,29.62,SE,124,2.0,6.0,82,0.00,,---,0.00,VWS V14.01,2014-01-04 05:23:00,
2014-01-03 23:28:00,26.5,21.8,29.62,NW,309,3.0,10.0,82,0.00,,---,0.00,VWS V14.01,2014-01-04 05:28:00,
2014-01-03 23:33:00,26.6,21.9,29.62,SSW,194,3.0,5.0,82,0.00,,---,0.00,VWS V14.01,2014-01-04 05:33:00,
2014-01-03 23:38:00,26.6,22.1,29.61,South,190,2.0,9.0,83,0.00,,---,0.00,VWS V14.01,2014-01-04 05:38:00,
2014-01-03 23:43:00,26.6,22.1,29.61,SSE,155,6.0,9.0,83,0.00,,---,0.00,VWS V14.01,2014-01-04 05:43:00,
2014-01-03 23:49:00,26.7,22.5,29.61,SSE,163,5.0,9.0,84,0.00,,---,0.00,VWS V14.01,2014-01-04 05:49:00,
2014-01-03 23:54:00,26.7,22.5,29.60,SE,124,2.0,8.0,84,0.00,,---,0.00,VWS V14.01,2014-01-04 05:54:00,
2014-01-03 23:59:00,26.7,22.8,29.59,SSE,164,5.0,8.0,85,0.00,,---,0.00,VWS V14.01,2014-01-04 05:59:00,